sensor_id;sensor_type;location;lat;lon;timestamp;P1;durP1;ratioP1;P2;durP2;ratioP2
80334;SDS011;69653;52.674;13.574;2023-05-09T00:00:26;6.63;;;3.87;;
80334;SDS011;69653;52.674;13.574;2023-05-09T00:02:51;7.83;;;3.73;;
80334;SDS011;69653;52.674;13.574;2023-05-09T00:05:18;7.88;;;3.80;;
80334;SDS011;69653;52.674;13.574;2023-05-09T00:07:45;6.18;;;3.45;;
80334;SDS011;69653;52.674;13.574;2023-05-09T00:10:10;8.70;;;4.30;;
80334;SDS011;69653;52.674;13.574;2023-05-09T00:12:35;9.30;;;3.83;;
80334;SDS011;69653;52.674;13.574;2023-05-09T00:15:01;6.07;;;3.67;;
80334;SDS011;69653;52.674;13.574;2023-05-09T00:17:27;7.43;;;3.67;;
80334;SDS011;69653;52.674;13.574;2023-05-09T00:19:53;6.22;;;3.47;;
80334;SDS011;69653;52.674;13.574;2023-05-09T00:22:19;7.40;;;3.58;;
80334;SDS011;69653;52.674;13.574;2023-05-09T00:24:48;6.68;;;3.53;;
80334;SDS011;69653;52.674;13.574;2023-05-09T00:27:13;6.45;;;3.47;;
80334;SDS011;69653;52.674;13.574;2023-05-09T00:29:39;7.22;;;3.75;;
80334;SDS011;69653;52.674;13.574;2023-05-09T00:32:04;6.00;;;3.37;;
80334;SDS011;69653;52.674;13.574;2023-05-09T00:34:30;5.70;;;3.42;;
80334;SDS011;69653;52.674;13.574;2023-05-09T00:36:55;5.70;;;3.30;;
80334;SDS011;69653;52.674;13.574;2023-05-09T00:39:20;8.20;;;3.70;;
80334;SDS011;69653;52.674;13.574;2023-05-09T00:41:46;7.73;;;3.60;;
80334;SDS011;69653;52.674;13.574;2023-05-09T00:44:11;6.05;;;3.20;;
80334;SDS011;69653;52.674;13.574;2023-05-09T00:46:37;7.37;;;3.53;;
80334;SDS011;69653;52.674;13.574;2023-05-09T00:49:03;8.07;;;4.35;;
80334;SDS011;69653;52.674;13.574;2023-05-09T00:51:28;7.57;;;3.22;;
80334;SDS011;69653;52.674;13.574;2023-05-09T00:53:54;7.15;;;3.63;;
80334;SDS011;69653;52.674;13.574;2023-05-09T00:56:20;6.90;;;3.50;;
80334;SDS011;69653;52.674;13.574;2023-05-09T00:58:46;6.25;;;3.38;;
80334;SDS011;69653;52.674;13.574;2023-05-09T01:01:11;5.82;;;3.15;;
80334;SDS011;69653;52.674;13.574;2023-05-09T01:03:37;6.77;;;3.33;;
80334;SDS011;69653;52.674;13.574;2023-05-09T01:09:07;6.95;;;3.38;;
80334;SDS011;69653;52.674;13.574;2023-05-09T01:14:32;5.50;;;2.90;;
80334;SDS011;69653;52.674;13.574;2023-05-09T01:17:19;6.43;;;3.70;;
80334;SDS011;69653;52.674;13.574;2023-05-09T01:22:21;6.43;;;2.97;;
80334;SDS011;69653;52.674;13.574;2023-05-09T01:25:01;7.05;;;3.03;;
80334;SDS011;69653;52.674;13.574;2023-05-09T01:30:02;5.25;;;2.72;;
80334;SDS011;69653;52.674;13.574;2023-05-09T01:32:29;6.10;;;3.53;;
80334;SDS011;69653;52.674;13.574;2023-05-09T01:34:58;7.22;;;3.53;;
80334;SDS011;69653;52.674;13.574;2023-05-09T01:37:32;6.40;;;3.53;;
80334;SDS011;69653;52.674;13.574;2023-05-09T01:40:03;7.63;;;3.75;;
80334;SDS011;69653;52.674;13.574;2023-05-09T01:42:37;7.07;;;3.30;;
80334;SDS011;69653;52.674;13.574;2023-05-09T01:45:06;8.23;;;3.78;;
80334;SDS011;69653;52.674;13.574;2023-05-09T01:47:33;6.82;;;3.67;;
80334;SDS011;69653;52.674;13.574;2023-05-09T01:50:01;6.78;;;3.17;;
80334;SDS011;69653;52.674;13.574;2023-05-09T01:52:29;6.57;;;3.28;;
80334;SDS011;69653;52.674;13.574;2023-05-09T01:54:55;7.47;;;3.75;;
80334;SDS011;69653;52.674;13.574;2023-05-09T01:57:23;6.30;;;3.53;;
80334;SDS011;69653;52.674;13.574;2023-05-09T01:59:51;6.93;;;3.42;;
80334;SDS011;69653;52.674;13.574;2023-05-09T02:02:17;7.47;;;3.63;;
80334;SDS011;69653;52.674;13.574;2023-05-09T02:04:43;6.82;;;3.22;;
80334;SDS011;69653;52.674;13.574;2023-05-09T02:07:09;8.15;;;3.50;;
80334;SDS011;69653;52.674;13.574;2023-05-09T02:09:36;7.15;;;3.35;;
80334;SDS011;69653;52.674;13.574;2023-05-09T02:12:01;8.70;;;3.63;;
80334;SDS011;69653;52.674;13.574;2023-05-09T02:14:28;6.32;;;3.20;;
80334;SDS011;69653;52.674;13.574;2023-05-09T02:16:54;6.10;;;3.22;;
80334;SDS011;69653;52.674;13.574;2023-05-09T02:19:19;6.80;;;2.93;;
80334;SDS011;69653;52.674;13.574;2023-05-09T02:21:45;6.10;;;3.10;;
80334;SDS011;69653;52.674;13.574;2023-05-09T02:24:10;8.50;;;3.80;;
80334;SDS011;69653;52.674;13.574;2023-05-09T02:26:35;5.55;;;3.20;;
80334;SDS011;69653;52.674;13.574;2023-05-09T02:29:02;5.85;;;3.05;;
80334;SDS011;69653;52.674;13.574;2023-05-09T02:31:30;6.65;;;3.70;;
80334;SDS011;69653;52.674;13.574;2023-05-09T02:33:58;5.13;;;2.97;;
80334;SDS011;69653;52.674;13.574;2023-05-09T02:36:23;5.65;;;3.08;;
80334;SDS011;69653;52.674;13.574;2023-05-09T02:38:49;8.18;;;3.50;;
80334;SDS011;69653;52.674;13.574;2023-05-09T02:41:15;7.30;;;3.50;;
80334;SDS011;69653;52.674;13.574;2023-05-09T02:43:41;7.38;;;3.15;;
80334;SDS011;69653;52.674;13.574;2023-05-09T02:46:07;6.88;;;3.53;;
80334;SDS011;69653;52.674;13.574;2023-05-09T02:48:33;6.97;;;3.53;;
80334;SDS011;69653;52.674;13.574;2023-05-09T02:50:59;6.45;;;3.13;;
80334;SDS011;69653;52.674;13.574;2023-05-09T02:53:24;6.00;;;3.43;;
80334;SDS011;69653;52.674;13.574;2023-05-09T02:55:50;6.37;;;3.10;;
80334;SDS011;69653;52.674;13.574;2023-05-09T02:58:15;6.30;;;3.13;;
80334;SDS011;69653;52.674;13.574;2023-05-09T03:00:40;6.17;;;3.30;;
80334;SDS011;69653;52.674;13.574;2023-05-09T03:03:06;5.75;;;3.38;;
80334;SDS011;69653;52.674;13.574;2023-05-09T03:05:32;6.70;;;3.37;;
80334;SDS011;69653;52.674;13.574;2023-05-09T03:07:57;7.17;;;3.30;;
80334;SDS011;69653;52.674;13.574;2023-05-09T03:10:22;6.87;;;3.80;;
80334;SDS011;69653;52.674;13.574;2023-05-09T03:12:47;9.90;;;3.27;;
80334;SDS011;69653;52.674;13.574;2023-05-09T03:15:13;7.77;;;3.20;;
80334;SDS011;69653;52.674;13.574;2023-05-09T03:17:38;7.27;;;3.50;;
80334;SDS011;69653;52.674;13.574;2023-05-09T03:20:04;7.17;;;3.37;;
80334;SDS011;69653;52.674;13.574;2023-05-09T03:22:30;6.72;;;3.80;;
80334;SDS011;69653;52.674;13.574;2023-05-09T03:24:55;7.90;;;3.55;;
80334;SDS011;69653;52.674;13.574;2023-05-09T03:27:20;5.60;;;3.20;;
80334;SDS011;69653;52.674;13.574;2023-05-09T03:29:46;7.87;;;3.23;;
80334;SDS011;69653;52.674;13.574;2023-05-09T03:32:11;9.70;;;3.67;;
80334;SDS011;69653;52.674;13.574;2023-05-09T03:34:36;6.77;;;3.20;;
80334;SDS011;69653;52.674;13.574;2023-05-09T03:37:02;6.07;;;3.07;;
80334;SDS011;69653;52.674;13.574;2023-05-09T03:39:27;6.23;;;3.07;;
80334;SDS011;69653;52.674;13.574;2023-05-09T03:41:52;6.37;;;2.73;;
80334;SDS011;69653;52.674;13.574;2023-05-09T03:44:17;5.10;;;2.90;;
80334;SDS011;69653;52.674;13.574;2023-05-09T03:46:43;6.80;;;3.23;;
80334;SDS011;69653;52.674;13.574;2023-05-09T03:49:08;4.73;;;2.87;;
80334;SDS011;69653;52.674;13.574;2023-05-09T03:51:33;6.50;;;3.10;;
80334;SDS011;69653;52.674;13.574;2023-05-09T03:53:59;7.05;;;2.90;;
80334;SDS011;69653;52.674;13.574;2023-05-09T03:56:24;5.83;;;3.03;;
80334;SDS011;69653;52.674;13.574;2023-05-09T03:58:50;8.48;;;3.33;;
80334;SDS011;69653;52.674;13.574;2023-05-09T04:01:15;5.88;;;2.90;;
80334;SDS011;69653;52.674;13.574;2023-05-09T04:03:41;6.15;;;2.83;;
80334;SDS011;69653;52.674;13.574;2023-05-09T04:06:07;5.80;;;3.03;;
80334;SDS011;69653;52.674;13.574;2023-05-09T04:08:32;7.20;;;3.50;;
80334;SDS011;69653;52.674;13.574;2023-05-09T04:10:58;5.30;;;3.03;;
80334;SDS011;69653;52.674;13.574;2023-05-09T04:13:23;6.00;;;3.33;;
80334;SDS011;69653;52.674;13.574;2023-05-09T04:15:48;5.97;;;2.97;;
80334;SDS011;69653;52.674;13.574;2023-05-09T04:18:14;5.68;;;3.10;;
80334;SDS011;69653;52.674;13.574;2023-05-09T04:20:39;6.80;;;2.97;;
80334;SDS011;69653;52.674;13.574;2023-05-09T04:23:05;7.47;;;3.47;;
80334;SDS011;69653;52.674;13.574;2023-05-09T04:25:30;6.82;;;3.30;;
80334;SDS011;69653;52.674;13.574;2023-05-09T04:27:56;6.80;;;3.20;;
80334;SDS011;69653;52.674;13.574;2023-05-09T04:30:21;5.28;;;2.72;;
80334;SDS011;69653;52.674;13.574;2023-05-09T04:32:47;6.05;;;2.70;;
80334;SDS011;69653;52.674;13.574;2023-05-09T04:35:12;5.43;;;3.40;;
80334;SDS011;69653;52.674;13.574;2023-05-09T04:37:39;6.15;;;2.90;;
80334;SDS011;69653;52.674;13.574;2023-05-09T04:40:04;5.50;;;2.90;;
80334;SDS011;69653;52.674;13.574;2023-05-09T04:42:31;9.18;;;2.75;;
80334;SDS011;69653;52.674;13.574;2023-05-09T04:44:57;5.45;;;2.70;;
80334;SDS011;69653;52.674;13.574;2023-05-09T04:47:23;6.43;;;2.83;;
80334;SDS011;69653;52.674;13.574;2023-05-09T04:49:48;7.60;;;2.97;;
80334;SDS011;69653;52.674;13.574;2023-05-09T04:52:13;6.20;;;2.70;;
80334;SDS011;69653;52.674;13.574;2023-05-09T04:54:38;5.57;;;2.83;;
80334;SDS011;69653;52.674;13.574;2023-05-09T04:57:04;5.67;;;2.60;;
80334;SDS011;69653;52.674;13.574;2023-05-09T04:59:30;6.00;;;2.92;;
80334;SDS011;69653;52.674;13.574;2023-05-09T05:01:56;5.53;;;2.63;;
80334;SDS011;69653;52.674;13.574;2023-05-09T05:04:21;5.20;;;2.93;;
80334;SDS011;69653;52.674;13.574;2023-05-09T05:06:47;7.18;;;3.03;;
80334;SDS011;69653;52.674;13.574;2023-05-09T05:09:12;5.57;;;3.07;;
80334;SDS011;69653;52.674;13.574;2023-05-09T05:11:38;5.90;;;2.78;;
80334;SDS011;69653;52.674;13.574;2023-05-09T05:14:03;5.50;;;2.73;;
80334;SDS011;69653;52.674;13.574;2023-05-09T05:16:28;5.85;;;2.95;;
80334;SDS011;69653;52.674;13.574;2023-05-09T05:18:54;6.07;;;2.80;;
80334;SDS011;69653;52.674;13.574;2023-05-09T05:21:19;7.50;;;3.50;;
80334;SDS011;69653;52.674;13.574;2023-05-09T05:23:44;5.67;;;3.10;;
80334;SDS011;69653;52.674;13.574;2023-05-09T05:26:09;5.73;;;2.87;;
80334;SDS011;69653;52.674;13.574;2023-05-09T05:28:35;7.50;;;2.87;;
80334;SDS011;69653;52.674;13.574;2023-05-09T05:31:00;7.73;;;3.07;;
80334;SDS011;69653;52.674;13.574;2023-05-09T05:33:25;6.07;;;2.87;;
80334;SDS011;69653;52.674;13.574;2023-05-09T05:35:51;6.40;;;2.87;;
80334;SDS011;69653;52.674;13.574;2023-05-09T05:38:16;6.17;;;2.83;;
80334;SDS011;69653;52.674;13.574;2023-05-09T05:40:41;6.20;;;2.63;;
80334;SDS011;69653;52.674;13.574;2023-05-09T05:43:07;6.37;;;3.40;;
80334;SDS011;69653;52.674;13.574;2023-05-09T05:45:32;5.73;;;2.90;;
80334;SDS011;69653;52.674;13.574;2023-05-09T05:47:57;5.90;;;3.20;;
80334;SDS011;69653;52.674;13.574;2023-05-09T05:50:22;7.27;;;2.93;;
80334;SDS011;69653;52.674;13.574;2023-05-09T05:52:48;6.13;;;2.80;;
80334;SDS011;69653;52.674;13.574;2023-05-09T05:55:13;5.77;;;3.13;;
80334;SDS011;69653;52.674;13.574;2023-05-09T05:57:38;7.53;;;3.10;;
80334;SDS011;69653;52.674;13.574;2023-05-09T06:00:07;6.93;;;3.00;;
80334;SDS011;69653;52.674;13.574;2023-05-09T06:02:35;6.65;;;3.05;;
80334;SDS011;69653;52.674;13.574;2023-05-09T06:05:00;5.27;;;3.07;;
80334;SDS011;69653;52.674;13.574;2023-05-09T06:07:25;5.30;;;2.83;;
80334;SDS011;69653;52.674;13.574;2023-05-09T06:09:51;5.03;;;3.05;;
80334;SDS011;69653;52.674;13.574;2023-05-09T06:12:16;7.70;;;3.63;;
80334;SDS011;69653;52.674;13.574;2023-05-09T06:14:42;6.40;;;3.27;;
80334;SDS011;69653;52.674;13.574;2023-05-09T06:17:07;8.48;;;3.03;;
80334;SDS011;69653;52.674;13.574;2023-05-09T06:19:33;5.78;;;2.80;;
80334;SDS011;69653;52.674;13.574;2023-05-09T06:21:58;5.63;;;3.27;;
80334;SDS011;69653;52.674;13.574;2023-05-09T06:24:23;7.47;;;3.20;;
80334;SDS011;69653;52.674;13.574;2023-05-09T06:26:49;5.87;;;3.03;;
80334;SDS011;69653;52.674;13.574;2023-05-09T06:29:14;5.93;;;3.05;;
80334;SDS011;69653;52.674;13.574;2023-05-09T06:31:40;7.57;;;2.88;;
80334;SDS011;69653;52.674;13.574;2023-05-09T06:34:06;6.00;;;3.03;;
80334;SDS011;69653;52.674;13.574;2023-05-09T06:36:31;6.53;;;3.03;;
80334;SDS011;69653;52.674;13.574;2023-05-09T06:38:58;7.43;;;3.25;;
80334;SDS011;69653;52.674;13.574;2023-05-09T06:41:24;5.10;;;2.83;;
80334;SDS011;69653;52.674;13.574;2023-05-09T06:43:50;5.68;;;2.90;;
80334;SDS011;69653;52.674;13.574;2023-05-09T06:46:16;5.72;;;2.40;;
80334;SDS011;69653;52.674;13.574;2023-05-09T06:48:41;5.60;;;2.70;;
80334;SDS011;69653;52.674;13.574;2023-05-09T06:51:07;5.13;;;2.50;;
80334;SDS011;69653;52.674;13.574;2023-05-09T06:53:32;6.17;;;2.93;;
80334;SDS011;69653;52.674;13.574;2023-05-09T06:55:57;6.47;;;2.55;;
80334;SDS011;69653;52.674;13.574;2023-05-09T06:58:23;5.32;;;2.75;;
80334;SDS011;69653;52.674;13.574;2023-05-09T07:00:48;6.07;;;3.08;;
80334;SDS011;69653;52.674;13.574;2023-05-09T07:03:14;5.90;;;3.00;;
80334;SDS011;69653;52.674;13.574;2023-05-09T07:05:40;5.63;;;2.63;;
80334;SDS011;69653;52.674;13.574;2023-05-09T07:08:05;5.20;;;2.85;;
80334;SDS011;69653;52.674;13.574;2023-05-09T07:10:30;6.00;;;3.10;;
80334;SDS011;69653;52.674;13.574;2023-05-09T07:12:56;5.55;;;2.72;;
80334;SDS011;69653;52.674;13.574;2023-05-09T07:15:21;7.40;;;3.15;;
80334;SDS011;69653;52.674;13.574;2023-05-09T07:17:47;6.57;;;2.83;;
80334;SDS011;69653;52.674;13.574;2023-05-09T07:20:12;6.00;;;3.00;;
80334;SDS011;69653;52.674;13.574;2023-05-09T07:22:37;6.47;;;3.10;;
80334;SDS011;69653;52.674;13.574;2023-05-09T07:25:03;4.83;;;2.53;;
80334;SDS011;69653;52.674;13.574;2023-05-09T07:27:30;6.07;;;2.55;;
80334;SDS011;69653;52.674;13.574;2023-05-09T07:29:56;5.50;;;2.43;;
80334;SDS011;69653;52.674;13.574;2023-05-09T07:32:21;4.77;;;1.93;;
80334;SDS011;69653;52.674;13.574;2023-05-09T07:34:46;5.87;;;2.47;;
80334;SDS011;69653;52.674;13.574;2023-05-09T07:37:12;4.67;;;2.50;;
80334;SDS011;69653;52.674;13.574;2023-05-09T07:39:37;5.88;;;2.35;;
80334;SDS011;69653;52.674;13.574;2023-05-09T07:42:02;4.87;;;2.30;;
80334;SDS011;69653;52.674;13.574;2023-05-09T07:44:29;4.30;;;2.17;;
80334;SDS011;69653;52.674;13.574;2023-05-09T07:46:55;4.50;;;2.05;;
80334;SDS011;69653;52.674;13.574;2023-05-09T07:49:23;4.68;;;2.40;;
80334;SDS011;69653;52.674;13.574;2023-05-09T07:51:48;5.43;;;2.22;;
80334;SDS011;69653;52.674;13.574;2023-05-09T07:54:13;5.27;;;2.13;;
80334;SDS011;69653;52.674;13.574;2023-05-09T07:56:39;8.43;;;2.20;;
80334;SDS011;69653;52.674;13.574;2023-05-09T07:59:04;5.00;;;2.25;;
80334;SDS011;69653;52.674;13.574;2023-05-09T08:01:30;4.30;;;2.13;;
80334;SDS011;69653;52.674;13.574;2023-05-09T08:03:55;7.27;;;2.20;;
80334;SDS011;69653;52.674;13.574;2023-05-09T08:06:20;6.35;;;2.30;;
80334;SDS011;69653;52.674;13.574;2023-05-09T08:08:46;5.77;;;2.00;;
80334;SDS011;69653;52.674;13.574;2023-05-09T08:11:11;5.70;;;2.37;;
80334;SDS011;69653;52.674;13.574;2023-05-09T08:13:36;6.67;;;2.03;;
80334;SDS011;69653;52.674;13.574;2023-05-09T08:16:01;5.37;;;2.33;;
80334;SDS011;69653;52.674;13.574;2023-05-09T08:18:27;5.82;;;2.40;;
80334;SDS011;69653;52.674;13.574;2023-05-09T08:20:53;10.65;;;2.97;;
80334;SDS011;69653;52.674;13.574;2023-05-09T08:23:18;7.77;;;2.07;;
80334;SDS011;69653;52.674;13.574;2023-05-09T08:25:43;6.17;;;2.37;;
80334;SDS011;69653;52.674;13.574;2023-05-09T08:28:09;5.20;;;1.80;;
80334;SDS011;69653;52.674;13.574;2023-05-09T08:30:34;7.75;;;2.70;;
80334;SDS011;69653;52.674;13.574;2023-05-09T08:33:00;5.72;;;3.10;;
80334;SDS011;69653;52.674;13.574;2023-05-09T08:35:25;5.13;;;1.90;;
80334;SDS011;69653;52.674;13.574;2023-05-09T08:37:51;4.30;;;2.03;;
80334;SDS011;69653;52.674;13.574;2023-05-09T08:40:16;4.07;;;1.87;;
80334;SDS011;69653;52.674;13.574;2023-05-09T08:42:42;6.37;;;1.97;;
80334;SDS011;69653;52.674;13.574;2023-05-09T08:45:10;4.95;;;2.25;;
80334;SDS011;69653;52.674;13.574;2023-05-09T08:47:38;5.50;;;2.35;;
80334;SDS011;69653;52.674;13.574;2023-05-09T08:50:04;5.10;;;2.70;;
80334;SDS011;69653;52.674;13.574;2023-05-09T08:52:31;4.65;;;2.08;;
80334;SDS011;69653;52.674;13.574;2023-05-09T08:54:57;5.60;;;2.17;;
80334;SDS011;69653;52.674;13.574;2023-05-09T08:57:23;5.90;;;2.30;;
80334;SDS011;69653;52.674;13.574;2023-05-09T08:59:50;3.97;;;2.03;;
80334;SDS011;69653;52.674;13.574;2023-05-09T09:02:16;7.45;;;2.60;;
80334;SDS011;69653;52.674;13.574;2023-05-09T09:04:42;7.25;;;2.22;;
80334;SDS011;69653;52.674;13.574;2023-05-09T09:07:09;5.78;;;2.17;;
80334;SDS011;69653;52.674;13.574;2023-05-09T09:09:35;5.15;;;1.98;;
80334;SDS011;69653;52.674;13.574;2023-05-09T09:12:04;4.00;;;2.00;;
80334;SDS011;69653;52.674;13.574;2023-05-09T09:14:31;5.00;;;1.85;;
80334;SDS011;69653;52.674;13.574;2023-05-09T09:17:02;5.70;;;1.80;;
80334;SDS011;69653;52.674;13.574;2023-05-09T09:19:29;6.18;;;2.20;;
80334;SDS011;69653;52.674;13.574;2023-05-09T09:21:58;4.57;;;2.33;;
80334;SDS011;69653;52.674;13.574;2023-05-09T09:24:26;3.88;;;1.92;;
80334;SDS011;69653;52.674;13.574;2023-05-09T09:26:51;5.97;;;1.97;;
80334;SDS011;69653;52.674;13.574;2023-05-09T09:29:17;4.13;;;1.98;;
80334;SDS011;69653;52.674;13.574;2023-05-09T09:31:44;5.10;;;2.00;;
80334;SDS011;69653;52.674;13.574;2023-05-09T09:34:11;4.88;;;1.85;;
80334;SDS011;69653;52.674;13.574;2023-05-09T09:36:42;6.53;;;2.25;;
80334;SDS011;69653;52.674;13.574;2023-05-09T09:39:08;4.90;;;1.90;;
80334;SDS011;69653;52.674;13.574;2023-05-09T09:41:34;5.10;;;2.07;;
80334;SDS011;69653;52.674;13.574;2023-05-09T09:44:07;5.10;;;2.13;;
80334;SDS011;69653;52.674;13.574;2023-05-09T09:49:18;4.57;;;2.40;;
80334;SDS011;69653;52.674;13.574;2023-05-09T09:51:48;4.30;;;2.08;;
80334;SDS011;69653;52.674;13.574;2023-05-09T09:54:17;4.40;;;1.95;;
80334;SDS011;69653;52.674;13.574;2023-05-09T09:59:09;4.25;;;2.10;;
80334;SDS011;69653;52.674;13.574;2023-05-09T10:04:23;4.85;;;2.03;;
80334;SDS011;69653;52.674;13.574;2023-05-09T10:06:56;5.97;;;2.35;;
80334;SDS011;69653;52.674;13.574;2023-05-09T10:09:22;3.92;;;2.10;;
80334;SDS011;69653;52.674;13.574;2023-05-09T10:11:49;5.38;;;1.77;;
80334;SDS011;69653;52.674;13.574;2023-05-09T10:14:20;6.10;;;2.45;;
80334;SDS011;69653;52.674;13.574;2023-05-09T10:16:47;4.88;;;2.08;;
80334;SDS011;69653;52.674;13.574;2023-05-09T10:19:17;4.85;;;2.20;;
80334;SDS011;69653;52.674;13.574;2023-05-09T10:21:46;5.25;;;2.17;;
80334;SDS011;69653;52.674;13.574;2023-05-09T10:24:15;4.65;;;2.08;;
80334;SDS011;69653;52.674;13.574;2023-05-09T10:26:45;5.05;;;2.05;;
80334;SDS011;69653;52.674;13.574;2023-05-09T10:29:14;4.20;;;1.80;;
80334;SDS011;69653;52.674;13.574;2023-05-09T10:31:46;4.60;;;2.20;;
80334;SDS011;69653;52.674;13.574;2023-05-09T10:34:15;4.38;;;1.88;;
80334;SDS011;69653;52.674;13.574;2023-05-09T10:36:42;5.38;;;2.75;;
80334;SDS011;69653;52.674;13.574;2023-05-09T10:39:07;6.28;;;2.75;;
80334;SDS011;69653;52.674;13.574;2023-05-09T10:41:33;4.97;;;2.33;;
80334;SDS011;69653;52.674;13.574;2023-05-09T10:44:00;5.78;;;2.28;;
80334;SDS011;69653;52.674;13.574;2023-05-09T10:46:27;4.65;;;2.00;;
80334;SDS011;69653;52.674;13.574;2023-05-09T10:48:53;5.43;;;2.30;;
80334;SDS011;69653;52.674;13.574;2023-05-09T10:51:18;5.53;;;2.60;;
80334;SDS011;69653;52.674;13.574;2023-05-09T10:53:45;6.90;;;2.33;;
80334;SDS011;69653;52.674;13.574;2023-05-09T10:56:24;5.72;;;2.67;;
80334;SDS011;69653;52.674;13.574;2023-05-09T10:58:54;5.82;;;2.47;;
80334;SDS011;69653;52.674;13.574;2023-05-09T11:04:05;6.05;;;2.45;;
80334;SDS011;69653;52.674;13.574;2023-05-09T11:09:23;4.40;;;2.25;;
80334;SDS011;69653;52.674;13.574;2023-05-09T11:12:21;6.57;;;2.40;;
80334;SDS011;69653;52.674;13.574;2023-05-09T11:24:46;5.00;;;1.90;;
80334;SDS011;69653;52.674;13.574;2023-05-09T11:27:23;5.20;;;2.40;;
80334;SDS011;69653;52.674;13.574;2023-05-09T11:29:52;4.78;;;2.25;;
80334;SDS011;69653;52.674;13.574;2023-05-09T11:32:25;4.22;;;2.08;;
80334;SDS011;69653;52.674;13.574;2023-05-09T11:35:04;6.38;;;2.42;;
80334;SDS011;69653;52.674;13.574;2023-05-09T11:37:38;5.53;;;2.15;;
80334;SDS011;69653;52.674;13.574;2023-05-09T11:40:22;5.43;;;2.30;;
80334;SDS011;69653;52.674;13.574;2023-05-09T11:42:48;4.30;;;2.40;;
80334;SDS011;69653;52.674;13.574;2023-05-09T11:45:19;5.07;;;2.13;;
80334;SDS011;69653;52.674;13.574;2023-05-09T11:47:45;3.95;;;1.80;;
80334;SDS011;69653;52.674;13.574;2023-05-09T11:50:12;6.00;;;2.40;;
80334;SDS011;69653;52.674;13.574;2023-05-09T11:52:38;5.18;;;2.28;;
80334;SDS011;69653;52.674;13.574;2023-05-09T11:55:05;4.22;;;2.42;;
80334;SDS011;69653;52.674;13.574;2023-05-09T11:57:31;5.78;;;2.20;;
80334;SDS011;69653;52.674;13.574;2023-05-09T11:59:58;4.65;;;1.88;;
80334;SDS011;69653;52.674;13.574;2023-05-09T12:02:24;9.23;;;3.15;;
80334;SDS011;69653;52.674;13.574;2023-05-09T12:04:50;6.30;;;2.13;;
80334;SDS011;69653;52.674;13.574;2023-05-09T12:07:15;4.32;;;2.17;;
80334;SDS011;69653;52.674;13.574;2023-05-09T12:09:42;4.25;;;1.80;;
80334;SDS011;69653;52.674;13.574;2023-05-09T12:12:08;6.95;;;2.30;;
80334;SDS011;69653;52.674;13.574;2023-05-09T12:14:35;7.32;;;2.33;;
80334;SDS011;69653;52.674;13.574;2023-05-09T12:17:01;4.90;;;2.53;;
80334;SDS011;69653;52.674;13.574;2023-05-09T12:19:27;4.35;;;2.30;;
80334;SDS011;69653;52.674;13.574;2023-05-09T12:21:59;5.97;;;2.20;;
80334;SDS011;69653;52.674;13.574;2023-05-09T12:24:26;4.72;;;2.10;;
80334;SDS011;69653;52.674;13.574;2023-05-09T12:26:54;4.32;;;2.20;;
80334;SDS011;69653;52.674;13.574;2023-05-09T12:29:23;4.55;;;2.00;;
80334;SDS011;69653;52.674;13.574;2023-05-09T12:31:49;5.82;;;2.83;;
80334;SDS011;69653;52.674;13.574;2023-05-09T12:34:15;5.10;;;2.13;;
80334;SDS011;69653;52.674;13.574;2023-05-09T12:36:45;4.82;;;2.08;;
80334;SDS011;69653;52.674;13.574;2023-05-09T12:39:14;5.80;;;2.15;;
80334;SDS011;69653;52.674;13.574;2023-05-09T12:41:46;5.80;;;2.22;;
80334;SDS011;69653;52.674;13.574;2023-05-09T12:44:19;5.40;;;2.35;;
80334;SDS011;69653;52.674;13.574;2023-05-09T12:46:56;5.65;;;2.80;;
80334;SDS011;69653;52.674;13.574;2023-05-09T12:49:28;7.05;;;2.80;;
80334;SDS011;69653;52.674;13.574;2023-05-09T12:51:55;10.35;;;2.47;;
80334;SDS011;69653;52.674;13.574;2023-05-09T12:54:22;5.90;;;2.60;;
80334;SDS011;69653;52.674;13.574;2023-05-09T12:56:52;7.22;;;2.13;;
80334;SDS011;69653;52.674;13.574;2023-05-09T12:59:27;8.05;;;2.40;;
80334;SDS011;69653;52.674;13.574;2023-05-09T13:01:59;5.85;;;2.15;;
80334;SDS011;69653;52.674;13.574;2023-05-09T13:04:26;4.72;;;2.40;;
80334;SDS011;69653;52.674;13.574;2023-05-09T13:06:53;5.07;;;2.00;;
80334;SDS011;69653;52.674;13.574;2023-05-09T13:09:21;4.68;;;2.45;;
80334;SDS011;69653;52.674;13.574;2023-05-09T13:11:48;6.60;;;2.78;;
80334;SDS011;69653;52.674;13.574;2023-05-09T13:14:14;4.18;;;2.00;;
80334;SDS011;69653;52.674;13.574;2023-05-09T13:16:40;5.53;;;2.15;;
80334;SDS011;69653;52.674;13.574;2023-05-09T13:19:05;6.28;;;2.55;;
80334;SDS011;69653;52.674;13.574;2023-05-09T13:21:31;4.93;;;2.05;;
80334;SDS011;69653;52.674;13.574;2023-05-09T13:23:57;4.97;;;2.28;;
80334;SDS011;69653;52.674;13.574;2023-05-09T13:26:23;7.90;;;2.80;;
80334;SDS011;69653;52.674;13.574;2023-05-09T13:28:48;5.17;;;2.17;;
80334;SDS011;69653;52.674;13.574;2023-05-09T13:31:13;4.23;;;2.00;;
80334;SDS011;69653;52.674;13.574;2023-05-09T13:33:39;4.40;;;2.22;;
80334;SDS011;69653;52.674;13.574;2023-05-09T13:36:04;7.63;;;3.30;;
80334;SDS011;69653;52.674;13.574;2023-05-09T13:38:31;5.75;;;2.80;;
80334;SDS011;69653;52.674;13.574;2023-05-09T13:41:00;4.93;;;2.40;;
80334;SDS011;69653;52.674;13.574;2023-05-09T13:43:25;6.00;;;2.20;;
80334;SDS011;69653;52.674;13.574;2023-05-09T13:45:51;4.15;;;2.22;;
80334;SDS011;69653;52.674;13.574;2023-05-09T13:48:16;5.63;;;2.30;;
80334;SDS011;69653;52.674;13.574;2023-05-09T13:50:41;5.87;;;2.60;;
80334;SDS011;69653;52.674;13.574;2023-05-09T13:53:07;5.37;;;2.20;;
80334;SDS011;69653;52.674;13.574;2023-05-09T13:55:32;7.63;;;2.40;;
80334;SDS011;69653;52.674;13.574;2023-05-09T13:57:58;4.65;;;1.83;;
80334;SDS011;69653;52.674;13.574;2023-05-09T14:00:23;5.83;;;2.27;;
80334;SDS011;69653;52.674;13.574;2023-05-09T14:02:50;7.88;;;2.30;;
80334;SDS011;69653;52.674;13.574;2023-05-09T14:05:16;5.03;;;2.05;;
80334;SDS011;69653;52.674;13.574;2023-05-09T14:07:41;7.32;;;2.05;;
80334;SDS011;69653;52.674;13.574;2023-05-09T14:10:07;5.10;;;2.27;;
80334;SDS011;69653;52.674;13.574;2023-05-09T14:12:33;5.82;;;2.45;;
80334;SDS011;69653;52.674;13.574;2023-05-09T14:14:58;4.35;;;2.10;;
80334;SDS011;69653;52.674;13.574;2023-05-09T14:17:23;4.83;;;2.00;;
80334;SDS011;69653;52.674;13.574;2023-05-09T14:19:49;6.73;;;2.70;;
80334;SDS011;69653;52.674;13.574;2023-05-09T14:22:14;5.70;;;2.60;;
80334;SDS011;69653;52.674;13.574;2023-05-09T14:24:40;4.68;;;2.50;;
80334;SDS011;69653;52.674;13.574;2023-05-09T14:27:05;5.13;;;2.33;;
80334;SDS011;69653;52.674;13.574;2023-05-09T14:29:31;5.47;;;2.58;;
80334;SDS011;69653;52.674;13.574;2023-05-09T14:31:56;4.88;;;1.90;;
80334;SDS011;69653;52.674;13.574;2023-05-09T14:34:22;4.78;;;2.33;;
80334;SDS011;69653;52.674;13.574;2023-05-09T14:36:47;7.47;;;2.10;;
80334;SDS011;69653;52.674;13.574;2023-05-09T14:39:14;5.47;;;2.60;;
80334;SDS011;69653;52.674;13.574;2023-05-09T14:41:39;6.32;;;2.30;;
80334;SDS011;69653;52.674;13.574;2023-05-09T14:44:05;4.80;;;2.42;;
80334;SDS011;69653;52.674;13.574;2023-05-09T14:46:30;6.37;;;2.23;;
80334;SDS011;69653;52.674;13.574;2023-05-09T14:48:55;4.80;;;2.20;;
80334;SDS011;69653;52.674;13.574;2023-05-09T14:51:27;7.88;;;2.55;;
80334;SDS011;69653;52.674;13.574;2023-05-09T14:53:53;6.53;;;1.85;;
80334;SDS011;69653;52.674;13.574;2023-05-09T14:56:18;4.83;;;2.73;;
80334;SDS011;69653;52.674;13.574;2023-05-09T14:58:44;6.00;;;2.30;;
80334;SDS011;69653;52.674;13.574;2023-05-09T15:01:09;5.00;;;2.53;;
80334;SDS011;69653;52.674;13.574;2023-05-09T15:03:34;5.13;;;2.10;;